sensor_id;sensor_type;location;lat;lon;timestamp;pressure;altitude;pressure_sealevel;temperature;humidity
2681;BME280;1350;42.134;24.708;2023-09-19T00:02:01;99818.97;;;18.38;100.00
2681;BME280;1350;42.134;24.708;2023-09-19T00:04:32;99819.56;;;18.31;100.00
2681;BME280;1350;42.134;24.708;2023-09-19T00:06:59;99817.50;;;18.23;100.00
2681;BME280;1350;42.134;24.708;2023-09-19T00:09:28;99816.00;;;18.19;100.00
2681;BME280;1350;42.134;24.708;2023-09-19T00:11:55;99810.75;;;18.18;100.00
2681;BME280;1350;42.134;24.708;2023-09-19T00:14:24;99822.25;;;18.42;100.00
2681;BME280;1350;42.134;24.708;2023-09-19T00:16:51;99810.56;;;18.43;100.00
2681;BME280;1350;42.134;24.708;2023-09-19T00:19:19;99810.44;;;18.44;100.00
2681;BME280;1350;42.134;24.708;2023-09-19T00:21:48;99801.88;;;18.39;100.00
2681;BME280;1350;42.134;24.708;2023-09-19T00:24:15;99797.47;;;18.05;100.00
2681;BME280;1350;42.134;24.708;2023-09-19T00:26:43;99803.47;;;18.31;100.00
2681;BME280;1350;42.134;24.708;2023-09-19T00:29:12;99800.53;;;18.34;100.00
2681;BME280;1350;42.134;24.708;2023-09-19T00:31:43;99799.78;;;18.32;100.00
2681;BME280;1350;42.134;24.708;2023-09-19T00:34:10;99797.97;;;18.32;100.00
2681;BME280;1350;42.134;24.708;2023-09-19T00:36:37;99795.66;;;18.39;100.00
2681;BME280;1350;42.134;24.708;2023-09-19T00:39:06;99801.59;;;18.31;100.00
2681;BME280;1350;42.134;24.708;2023-09-19T00:41:34;99805.41;;;18.29;100.00
2681;BME280;1350;42.134;24.708;2023-09-19T00:44:02;99800.66;;;18.21;100.00
2681;BME280;1350;42.134;24.708;2023-09-19T00:46:30;99797.97;;;18.32;100.00
2681;BME280;1350;42.134;24.708;2023-09-19T00:48:57;99797.97;;;18.43;100.00
2681;BME280;1350;42.134;24.708;2023-09-19T00:51:25;99799.78;;;18.32;100.00
2681;BME280;1350;42.134;24.708;2023-09-19T00:53:53;99799.31;;;18.38;100.00
2681;BME280;1350;42.134;24.708;2023-09-19T00:56:22;99799.91;;;18.30;100.00
2681;BME280;1350;42.134;24.708;2023-09-19T00:58:49;99801.84;;;18.28;100.00
2681;BME280;1350;42.134;24.708;2023-09-19T01:01:16;99798.09;;;18.42;100.00
2681;BME280;1350;42.134;24.708;2023-09-19T01:03:44;99802.22;;;18.35;100.00
2681;BME280;1350;42.134;24.708;2023-09-19T01:06:11;99797.59;;;18.37;100.00
2681;BME280;1350;42.134;24.708;2023-09-19T01:08:38;99798.94;;;18.42;100.00
2681;BME280;1350;42.134;24.708;2023-09-19T01:11:11;99799.66;;;18.33;100.00
2681;BME280;1350;42.134;24.708;2023-09-19T01:13:48;99792.34;;;18.24;100.00
2681;BME280;1350;42.134;24.708;2023-09-19T01:16:29;99790.28;;;18.17;100.00
2681;BME280;1350;42.134;24.708;2023-09-19T01:19:15;99788.09;;;18.22;100.00
2681;BME280;1350;42.134;24.708;2023-09-19T01:21:54;99786.97;;;18.13;100.00
2681;BME280;1350;42.134;24.708;2023-09-19T01:25:08;99788.09;;;18.11;100.00
2681;BME280;1350;42.134;24.708;2023-09-19T01:28:07;99785.16;;;18.14;100.00
2681;BME280;1350;42.134;24.708;2023-09-19T01:30:44;99781.13;;;17.97;100.00
2681;BME280;1350;42.134;24.708;2023-09-19T01:33:13;99782.47;;;17.92;100.00
2681;BME280;1350;42.134;24.708;2023-09-19T01:35:40;99789.41;;;17.83;100.00
2681;BME280;1350;42.134;24.708;2023-09-19T01:38:07;99788.69;;;17.81;100.00
2681;BME280;1350;42.134;24.708;2023-09-19T01:40:41;99787.94;;;17.79;100.00
2681;BME280;1350;42.134;24.708;2023-09-19T01:43:12;99790.47;;;17.70;100.00
2681;BME280;1350;42.134;24.708;2023-09-19T01:45:49;99787.91;;;17.57;100.00
2681;BME280;1350;42.134;24.708;2023-09-19T01:48:25;99790.97;;;17.75;100.00
2681;BME280;1350;42.134;24.708;2023-09-19T01:51:00;99786.47;;;17.64;100.00
2681;BME280;1350;42.134;24.708;2023-09-19T01:53:30;99788.88;;;17.22;100.00
2681;BME280;1350;42.134;24.708;2023-09-19T01:56:00;99777.97;;;17.36;100.00
2681;BME280;1350;42.134;24.708;2023-09-19T01:58:34;99784.81;;;17.16;100.00
2681;BME280;1350;42.134;24.708;2023-09-19T02:01:03;99786.44;;;16.95;100.00
2681;BME280;1350;42.134;24.708;2023-09-19T02:03:33;99783.03;;;16.93;100.00
2681;BME280;1350;42.134;24.708;2023-09-19T02:06:01;99791.03;;;16.82;100.00
2681;BME280;1350;42.134;24.708;2023-09-19T02:08:30;99796.31;;;16.71;100.00
2681;BME280;1350;42.134;24.708;2023-09-19T02:10:58;99789.97;;;16.72;100.00
2681;BME280;1350;42.134;24.708;2023-09-19T02:13:26;99783.75;;;16.71;100.00
2681;BME280;1350;42.134;24.708;2023-09-19T02:15:53;99780.72;;;16.65;100.00
2681;BME280;1350;42.134;24.708;2023-09-19T02:18:22;99785.47;;;16.49;100.00
2681;BME280;1350;42.134;24.708;2023-09-19T02:20:49;99774.97;;;16.46;100.00
2681;BME280;1350;42.134;24.708;2023-09-19T02:23:18;99774.94;;;16.58;100.00
2681;BME280;1350;42.134;24.708;2023-09-19T02:25:52;99769.78;;;16.68;100.00
2681;BME280;1350;42.134;24.708;2023-09-19T02:28:19;99774.03;;;16.70;100.00
2681;BME280;1350;42.134;24.708;2023-09-19T02:30:47;99774.09;;;16.81;100.00
2681;BME280;1350;42.134;24.708;2023-09-19T02:33:15;99777.41;;;16.85;100.00
2681;BME280;1350;42.134;24.708;2023-09-19T02:35:44;99776.78;;;16.81;100.00
2681;BME280;1350;42.134;24.708;2023-09-19T02:38:11;99774.50;;;16.88;100.00
2681;BME280;1350;42.134;24.708;2023-09-19T02:40:38;99777.91;;;16.90;100.00
2681;BME280;1350;42.134;24.708;2023-09-19T02:43:05;99776.66;;;17.07;100.00
2681;BME280;1350;42.134;24.708;2023-09-19T02:45:33;99771.84;;;16.99;100.00
2681;BME280;1350;42.134;24.708;2023-09-19T02:48:00;99779.50;;;16.93;100.00
2681;BME280;1350;42.134;24.708;2023-09-19T02:50:28;99774.16;;;17.04;100.00
2681;BME280;1350;42.134;24.708;2023-09-19T02:52:56;99777.78;;;16.92;100.00
2681;BME280;1350;42.134;24.708;2023-09-19T02:55:24;99779.53;;;17.04;100.00
2681;BME280;1350;42.134;24.708;2023-09-19T02:57:52;99773.09;;;17.06;100.00
2681;BME280;1350;42.134;24.708;2023-09-19T03:00:21;99778.81;;;17.02;100.00
2681;BME280;1350;42.134;24.708;2023-09-19T03:02:48;99775.84;;;16.94;100.00
2681;BME280;1350;42.134;24.708;2023-09-19T03:05:15;99769.41;;;16.96;100.00
2681;BME280;1350;42.134;24.708;2023-09-19T03:07:42;99769.63;;;16.93;100.00
2681;BME280;1350;42.134;24.708;2023-09-19T03:10:13;99774.53;;;16.99;100.00
2681;BME280;1350;42.134;24.708;2023-09-19T03:12:41;99769.91;;;17.01;100.00
2681;BME280;1350;42.134;24.708;2023-09-19T03:15:08;99769.50;;;16.95;100.00
2681;BME280;1350;42.134;24.708;2023-09-19T03:17:35;99766.22;;;16.91;100.00
2681;BME280;1350;42.134;24.708;2023-09-19T03:20:03;99765.66;;;16.99;100.00
2681;BME280;1350;42.134;24.708;2023-09-19T03:22:34;99772.06;;;16.85;100.00
2681;BME280;1350;42.134;24.708;2023-09-19T03:25:01;99766.88;;;17.06;100.00
2681;BME280;1350;42.134;24.708;2023-09-19T03:27:34;99767.63;;;16.84;100.00
2681;BME280;1350;42.134;24.708;2023-09-19T03:30:01;99764.50;;;16.90;100.00
2681;BME280;1350;42.134;24.708;2023-09-19T03:32:31;99768.56;;;16.96;100.00
2681;BME280;1350;42.134;24.708;2023-09-19T03:34:58;99767.69;;;16.95;100.00
2681;BME280;1350;42.134;24.708;2023-09-19T03:37:24;99760.88;;;16.91;100.00
2681;BME280;1350;42.134;24.708;2023-09-19T03:39:51;99757.78;;;16.84;100.00
2681;BME280;1350;42.134;24.708;2023-09-19T03:42:18;99755.81;;;16.75;100.00
2681;BME280;1350;42.134;24.708;2023-09-19T03:44:52;99760.75;;;16.69;100.00
2681;BME280;1350;42.134;24.708;2023-09-19T03:47:20;99765.13;;;16.70;100.00
2681;BME280;1350;42.134;24.708;2023-09-19T03:49:47;99763.38;;;16.58;100.00
2681;BME280;1350;42.134;24.708;2023-09-19T03:52:14;99760.53;;;16.72;100.00
2681;BME280;1350;42.134;24.708;2023-09-19T03:54:42;99768.91;;;16.67;100.00
2681;BME280;1350;42.134;24.708;2023-09-19T03:57:09;99765.78;;;16.73;100.00
2681;BME280;1350;42.134;24.708;2023-09-19T03:59:38;99766.69;;;16.61;100.00
2681;BME280;1350;42.134;24.708;2023-09-19T04:02:06;99771.22;;;16.48;100.00
2681;BME280;1350;42.134;24.708;2023-09-19T04:04:37;99767.38;;;16.52;100.00
2681;BME280;1350;42.134;24.708;2023-09-19T04:07:04;99767.38;;;16.52;100.00
2681;BME280;1350;42.134;24.708;2023-09-19T04:09:30;99769.38;;;16.61;100.00
2681;BME280;1350;42.134;24.708;2023-09-19T04:11:57;99767.78;;;16.59;100.00
2681;BME280;1350;42.134;24.708;2023-09-19T04:14:24;99771.56;;;16.44;100.00
2681;BME280;1350;42.134;24.708;2023-09-19T04:16:51;99775.91;;;17.05;100.00
2681;BME280;1350;42.134;24.708;2023-09-19T04:19:20;99774.00;;;17.52;100.00
2681;BME280;1350;42.134;24.708;2023-09-19T04:21:47;99781.00;;;18.32;100.00
2681;BME280;1350;42.134;24.708;2023-09-19T04:24:14;99773.03;;;19.27;100.00
2681;BME280;1350;42.134;24.708;2023-09-19T04:26:41;99769.25;;;20.21;94.07
2681;BME280;1350;42.134;24.708;2023-09-19T04:29:09;99774.69;;;21.08;85.18
2681;BME280;1350;42.134;24.708;2023-09-19T04:31:36;99773.28;;;21.04;82.29
2681;BME280;1350;42.134;24.708;2023-09-19T04:34:05;99776.31;;;20.71;83.69
2681;BME280;1350;42.134;24.708;2023-09-19T04:36:37;99778.19;;;20.71;82.59
2681;BME280;1350;42.134;24.708;2023-09-19T04:39:04;99775.53;;;20.80;83.70
2681;BME280;1350;42.134;24.708;2023-09-19T04:41:33;99781.72;;;20.62;84.62
2681;BME280;1350;42.134;24.708;2023-09-19T04:44:00;99771.78;;;20.62;84.34
2681;BME280;1350;42.134;24.708;2023-09-19T04:46:27;99774.47;;;20.62;82.68
2681;BME280;1350;42.134;24.708;2023-09-19T04:48:54;99774.50;;;20.81;82.87
2681;BME280;1350;42.134;24.708;2023-09-19T04:51:20;99767.03;;;21.13;81.79
2681;BME280;1350;42.134;24.708;2023-09-19T04:53:49;99764.34;;;21.32;79.21
2681;BME280;1350;42.134;24.708;2023-09-19T04:56:15;99773.84;;;21.55;77.54
2681;BME280;1350;42.134;24.708;2023-09-19T04:58:42;99771.81;;;21.86;75.59
2681;BME280;1350;42.134;24.708;2023-09-19T05:01:10;99779.34;;;22.19;73.71
2681;BME280;1350;42.134;24.708;2023-09-19T05:03:38;99766.28;;;22.51;71.19
2681;BME280;1350;42.134;24.708;2023-09-19T05:06:05;99774.03;;;22.64;68.97
2681;BME280;1350;42.134;24.708;2023-09-19T05:08:31;99776.56;;;22.92;67.32
2681;BME280;1350;42.134;24.708;2023-09-19T05:11:01;99775.28;;;23.32;65.51
2681;BME280;1350;42.134;24.708;2023-09-19T05:13:28;99771.59;;;23.58;63.10
2681;BME280;1350;42.134;24.708;2023-09-19T05:15:59;99765.81;;;23.79;62.20
2681;BME280;1350;42.134;24.708;2023-09-19T05:18:28;99779.03;;;23.99;61.78
2681;BME280;1350;42.134;24.708;2023-09-19T05:20:55;99774.63;;;24.32;60.03
2681;BME280;1350;42.134;24.708;2023-09-19T05:23:21;99782.22;;;24.54;59.55
2681;BME280;1350;42.134;24.708;2023-09-19T05:25:48;99779.94;;;24.75;58.44
2681;BME280;1350;42.134;24.708;2023-09-19T05:28:16;99778.63;;;24.95;58.10
2681;BME280;1350;42.134;24.708;2023-09-19T05:30:43;99772.56;;;25.09;57.00
2681;BME280;1350;42.134;24.708;2023-09-19T05:33:10;99781.75;;;25.32;56.68
2681;BME280;1350;42.134;24.708;2023-09-19T05:35:37;99782.63;;;25.57;55.44
2681;BME280;1350;42.134;24.708;2023-09-19T05:38:05;99787.53;;;25.69;55.36
2681;BME280;1350;42.134;24.708;2023-09-19T05:40:34;99793.81;;;25.94;54.36
2681;BME280;1350;42.134;24.708;2023-09-19T05:43:01;99791.06;;;26.10;53.98
2681;BME280;1350;42.134;24.708;2023-09-19T05:45:30;99798.16;;;26.35;53.64
2681;BME280;1350;42.134;24.708;2023-09-19T05:48:07;99794.69;;;26.49;52.74
2681;BME280;1350;42.134;24.708;2023-09-19T05:50:34;99794.63;;;26.73;52.47
2681;BME280;1350;42.134;24.708;2023-09-19T05:53:01;99792.19;;;26.86;52.19
2681;BME280;1350;42.134;24.708;2023-09-19T05:55:29;99792.44;;;27.22;51.68
2681;BME280;1350;42.134;24.708;2023-09-19T05:57:56;99785.78;;;27.69;50.78
2681;BME280;1350;42.134;24.708;2023-09-19T06:00:24;99775.88;;;27.76;50.19
2681;BME280;1350;42.134;24.708;2023-09-19T06:02:55;99782.16;;;27.99;49.86
2681;BME280;1350;42.134;24.708;2023-09-19T06:05:22;99775.28;;;27.89;49.66
2681;BME280;1350;42.134;24.708;2023-09-19T06:07:50;99759.25;;;27.49;50.17
2681;BME280;1350;42.134;24.708;2023-09-19T06:10:17;99767.38;;;27.71;50.14
2681;BME280;1350;42.134;24.708;2023-09-19T06:12:46;99766.28;;;27.80;50.15
2681;BME280;1350;42.134;24.708;2023-09-19T06:15:14;99760.13;;;28.16;49.33
2681;BME280;1350;42.134;24.708;2023-09-19T06:17:47;99770.59;;;28.41;48.36
2681;BME280;1350;42.134;24.708;2023-09-19T06:20:15;99763.13;;;28.79;48.66
2681;BME280;1350;42.134;24.708;2023-09-19T06:22:44;99762.28;;;29.14;47.72
2681;BME280;1350;42.134;24.708;2023-09-19T06:25:12;99764.09;;;29.21;47.29
2681;BME280;1350;42.134;24.708;2023-09-19T06:27:41;99762.69;;;29.74;46.66
2681;BME280;1350;42.134;24.708;2023-09-19T06:30:09;99764.69;;;30.14;45.85
2681;BME280;1350;42.134;24.708;2023-09-19T06:32:36;99761.81;;;30.22;45.42
2681;BME280;1350;42.134;24.708;2023-09-19T06:35:04;99754.06;;;29.98;46.11
2681;BME280;1350;42.134;24.708;2023-09-19T06:37:34;99761.09;;;30.41;44.76
2681;BME280;1350;42.134;24.708;2023-09-19T06:40:05;99758.91;;;30.64;44.76
2681;BME280;1350;42.134;24.708;2023-09-19T06:42:32;99756.91;;;30.45;44.60
2681;BME280;1350;42.134;24.708;2023-09-19T06:44:59;99750.97;;;30.35;44.83
2681;BME280;1350;42.134;24.708;2023-09-19T06:47:26;99748.19;;;30.01;45.63
2681;BME280;1350;42.134;24.708;2023-09-19T06:49:53;99752.75;;;29.94;46.65
2681;BME280;1350;42.134;24.708;2023-09-19T06:52:20;99745.66;;;30.34;49.79
2681;BME280;1350;42.134;24.708;2023-09-19T06:54:48;99753.00;;;30.67;47.92
2681;BME280;1350;42.134;24.708;2023-09-19T06:57:15;99752.00;;;30.34;47.48
2681;BME280;1350;42.134;24.708;2023-09-19T06:59:42;99749.28;;;29.79;48.27
2681;BME280;1350;42.134;24.708;2023-09-19T07:02:10;99748.66;;;28.99;48.42
2681;BME280;1350;42.134;24.708;2023-09-19T07:04:37;99739.91;;;28.89;51.07
2681;BME280;1350;42.134;24.708;2023-09-19T07:07:04;99737.66;;;29.28;50.55
2681;BME280;1350;42.134;24.708;2023-09-19T07:09:30;99743.25;;;29.41;51.03
2681;BME280;1350;42.134;24.708;2023-09-19T07:11:59;99739.34;;;29.29;49.88
2681;BME280;1350;42.134;24.708;2023-09-19T07:14:26;99735.31;;;28.90;49.21
2681;BME280;1350;42.134;24.708;2023-09-19T07:16:53;99741.53;;;28.34;50.51
2681;BME280;1350;42.134;24.708;2023-09-19T07:19:20;99733.81;;;28.52;52.59
2681;BME280;1350;42.134;24.708;2023-09-19T07:21:47;99739.16;;;29.10;52.40
2681;BME280;1350;42.134;24.708;2023-09-19T07:24:16;99739.34;;;29.50;51.81
2681;BME280;1350;42.134;24.708;2023-09-19T07:26:42;99747.53;;;29.72;51.04
2681;BME280;1350;42.134;24.708;2023-09-19T07:29:11;99747.41;;;29.86;49.11
2681;BME280;1350;42.134;24.708;2023-09-19T07:31:37;99732.09;;;29.01;49.06
2681;BME280;1350;42.134;24.708;2023-09-19T07:34:04;99731.56;;;28.55;51.51
2681;BME280;1350;42.134;24.708;2023-09-19T07:36:33;99729.66;;;28.27;50.33
2681;BME280;1350;42.134;24.708;2023-09-19T07:39:03;99725.06;;;27.98;51.46
2681;BME280;1350;42.134;24.708;2023-09-19T07:41:32;99728.31;;;28.37;50.52
2681;BME280;1350;42.134;24.708;2023-09-19T07:43:59;99725.19;;;27.82;51.51
2681;BME280;1350;42.134;24.708;2023-09-19T07:46:27;99719.69;;;28.98;49.97
2681;BME280;1350;42.134;24.708;2023-09-19T07:48:56;99725.69;;;30.06;49.18
2681;BME280;1350;42.134;24.708;2023-09-19T07:51:23;99715.50;;;30.61;48.28
2681;BME280;1350;42.134;24.708;2023-09-19T07:53:50;99715.22;;;31.10;46.67
2681;BME280;1350;42.134;24.708;2023-09-19T07:56:18;99709.53;;;31.05;45.51
2681;BME280;1350;42.134;24.708;2023-09-19T07:58:45;99702.00;;;31.33;45.40
2681;BME280;1350;42.134;24.708;2023-09-19T08:01:12;99695.69;;;31.39;45.35
2681;BME280;1350;42.134;24.708;2023-09-19T08:03:42;99691.91;;;31.60;43.82
2681;BME280;1350;42.134;24.708;2023-09-19T08:06:10;99695.25;;;31.62;43.63
2681;BME280;1350;42.134;24.708;2023-09-19T08:08:38;99694.41;;;31.48;43.66
2681;BME280;1350;42.134;24.708;2023-09-19T08:11:06;99695.91;;;31.77;42.43
2681;BME280;1350;42.134;24.708;2023-09-19T08:13:37;99698.00;;;31.49;42.92
2681;BME280;1350;42.134;24.708;2023-09-19T08:16:08;99694.22;;;31.63;42.66
2681;BME280;1350;42.134;24.708;2023-09-19T08:18:35;99683.03;;;31.84;42.62
2681;BME280;1350;42.134;24.708;2023-09-19T08:21:04;99684.91;;;31.83;42.10
2681;BME280;1350;42.134;24.708;2023-09-19T08:23:33;99683.44;;;31.87;42.32
2681;BME280;1350;42.134;24.708;2023-09-19T08:26:00;99685.03;;;32.27;41.26
2681;BME280;1350;42.134;24.708;2023-09-19T08:28:32;99678.34;;;31.12;42.07
2681;BME280;1350;42.134;24.708;2023-09-19T08:31:01;99673.88;;;30.32;43.15
2681;BME280;1350;42.134;24.708;2023-09-19T08:33:31;99672.78;;;28.74;45.01
2681;BME280;1350;42.134;24.708;2023-09-19T08:35:57;99662.03;;;29.35;45.52
2681;BME280;1350;42.134;24.708;2023-09-19T08:38:26;99665.53;;;28.16;46.48
2681;BME280;1350;42.134;24.708;2023-09-19T08:40:57;99665.69;;;29.00;45.46
2681;BME280;1350;42.134;24.708;2023-09-19T08:43:25;99661.50;;;29.46;45.05
2681;BME280;1350;42.134;24.708;2023-09-19T08:45:58;99649.50;;;30.09;43.48
2681;BME280;1350;42.134;24.708;2023-09-19T08:48:30;99655.59;;;30.45;43.77
2681;BME280;1350;42.134;24.708;2023-09-19T08:51:02;99658.88;;;29.87;43.94
2681;BME280;1350;42.134;24.708;2023-09-19T08:53:38;99649.34;;;30.17;43.74
2681;BME280;1350;42.134;24.708;2023-09-19T08:56:10;99656.47;;;30.52;43.89
2681;BME280;1350;42.134;24.708;2023-09-19T08:58:44;99645.53;;;30.59;43.76
2681;BME280;1350;42.134;24.708;2023-09-19T09:01:14;99647.63;;;30.10;43.55
2681;BME280;1350;42.134;24.708;2023-09-19T09:03:42;99653.09;;;30.50;42.92
2681;BME280;1350;42.134;24.708;2023-09-19T09:06:14;99646.28;;;31.06;42.28
2681;BME280;1350;42.134;24.708;2023-09-19T09:08:43;99646.88;;;32.06;41.25
2681;BME280;1350;42.134;24.708;2023-09-19T09:11:11;99640.91;;;32.22;40.97
2681;BME280;1350;42.134;24.708;2023-09-19T09:13:38;99631.59;;;32.36;40.78
2681;BME280;1350;42.134;24.708;2023-09-19T09:16:07;99628.03;;;32.23;41.21
2681;BME280;1350;42.134;24.708;2023-09-19T09:18:35;99630.47;;;32.82;40.30
2681;BME280;1350;42.134;24.708;2023-09-19T09:21:02;99634.06;;;32.89;39.38
2681;BME280;1350;42.134;24.708;2023-09-19T09:23:30;99633.34;;;30.61;41.92
2681;BME280;1350;42.134;24.708;2023-09-19T09:25:59;99622.84;;;30.18;42.88
2681;BME280;1350;42.134;24.708;2023-09-19T09:28:30;99626.22;;;29.51;43.39
2681;BME280;1350;42.134;24.708;2023-09-19T09:30:58;99626.56;;;30.57;42.63
2681;BME280;1350;42.134;24.708;2023-09-19T09:33:28;99618.00;;;31.71;41.44
2681;BME280;1350;42.134;24.708;2023-09-19T09:35:56;99618.34;;;32.14;40.29
2681;BME280;1350;42.134;24.708;2023-09-19T09:38:26;99612.25;;;32.12;40.83
2681;BME280;1350;42.134;24.708;2023-09-19T09:40:56;99603.16;;;32.93;39.51
2681;BME280;1350;42.134;24.708;2023-09-19T09:43:34;99601.19;;;31.48;40.79
2681;BME280;1350;42.134;24.708;2023-09-19T09:46:10;99596.22;;;30.46;41.84
2681;BME280;1350;42.134;24.708;2023-09-19T09:49:00;99593.38;;;31.52;41.46
2681;BME280;1350;42.134;24.708;2023-09-19T09:51:45;99592.81;;;32.07;40.40
2681;BME280;1350;42.134;24.708;2023-09-19T09:54:15;99589.56;;;31.46;41.04
2681;BME280;1350;42.134;24.708;2023-09-19T09:56:57;99580.25;;;31.73;40.17
2681;BME280;1350;42.134;24.708;2023-09-19T09:59:51;99580.28;;;32.24;39.90
2681;BME280;1350;42.134;24.708;2023-09-19T10:02:20;99580.69;;;31.70;40.42
2681;BME280;1350;42.134;24.708;2023-09-19T10:04:51;99576.84;;;31.91;40.60
2681;BME280;1350;42.134;24.708;2023-09-19T10:10:15;99570.19;;;31.22;40.69
2681;BME280;1350;42.134;24.708;2023-09-19T10:13:05;99576.28;;;31.63;40.78
2681;BME280;1350;42.134;24.708;2023-09-19T10:15:35;99585.97;;;32.66;39.22
2681;BME280;1350;42.134;24.708;2023-09-19T10:18:04;99572.72;;;33.19;38.53
2681;BME280;1350;42.134;24.708;2023-09-19T10:20:34;99567.44;;;33.18;38.32
2681;BME280;1350;42.134;24.708;2023-09-19T10:23:06;99568.75;;;33.76;37.87
2681;BME280;1350;42.134;24.708;2023-09-19T10:25:39;99569.13;;;33.61;38.17
2681;BME280;1350;42.134;24.708;2023-09-19T10:28:07;99564.00;;;33.65;38.30
2681;BME280;1350;42.134;24.708;2023-09-19T10:30:38;99559.59;;;33.82;37.20
2681;BME280;1350;42.134;24.708;2023-09-19T10:33:10;99557.91;;;33.81;37.23
2681;BME280;1350;42.134;24.708;2023-09-19T10:35:38;99557.56;;;33.10;37.67
2681;BME280;1350;42.134;24.708;2023-09-19T10:38:07;99542.63;;;32.00;38.73
2681;BME280;1350;42.134;24.708;2023-09-19T10:40:37;99542.25;;;32.96;37.84
2681;BME280;1350;42.134;24.708;2023-09-19T10:43:11;99541.16;;;33.46;37.38
2681;BME280;1350;42.134;24.708;2023-09-19T10:45:41;99529.69;;;33.25;37.50
2681;BME280;1350;42.134;24.708;2023-09-19T10:48:10;99525.53;;;32.98;37.84
2681;BME280;1350;42.134;24.708;2023-09-19T10:50:44;99523.97;;;32.77;37.79
2681;BME280;1350;42.134;24.708;2023-09-19T10:53:13;99523.72;;;32.23;38.74
2681;BME280;1350;42.134;24.708;2023-09-19T10:55:41;99520.38;;;32.52;38.80
2681;BME280;1350;42.134;24.708;2023-09-19T10:58:28;99520.22;;;33.03;38.06
2681;BME280;1350;42.134;24.708;2023-09-19T11:00:57;99510.63;;;33.30;38.04
2681;BME280;1350;42.134;24.708;2023-09-19T11:03:31;99514.94;;;33.80;37.02
2681;BME280;1350;42.134;24.708;2023-09-19T11:06:06;99512.69;;;33.95;36.70
2681;BME280;1350;42.134;24.708;2023-09-19T11:08:52;99504.69;;;33.87;36.99
2681;BME280;1350;42.134;24.708;2023-09-19T11:11:44;99504.06;;;34.33;36.32
2681;BME280;1350;42.134;24.708;2023-09-19T11:14:30;99496.66;;;33.85;36.29
2681;BME280;1350;42.134;24.708;2023-09-19T11:20:37;99478.19;;;33.74;39.47
2681;BME280;1350;42.134;24.708;2023-09-19T11:23:19;99478.88;;;33.52;38.38
2681;BME280;1350;42.134;24.708;2023-09-19T11:25:49;99471.72;;;33.26;38.80
2681;BME280;1350;42.134;24.708;2023-09-19T11:28:31;99480.09;;;32.71;38.31
2681;BME280;1350;42.134;24.708;2023-09-19T11:30:58;99467.84;;;32.66;40.88
2681;BME280;1350;42.134;24.708;2023-09-19T11:33:26;99466.31;;;32.15;39.00
2681;BME280;1350;42.134;24.708;2023-09-19T11:36:03;99457.00;;;31.14;41.13
2681;BME280;1350;42.134;24.708;2023-09-19T11:38:57;99453.09;;;31.55;40.41
2681;BME280;1350;42.134;24.708;2023-09-19T11:41:39;99443.97;;;31.67;39.69
2681;BME280;1350;42.134;24.708;2023-09-19T11:44:33;99441.44;;;31.66;39.52
2681;BME280;1350;42.134;24.708;2023-09-19T11:47:04;99442.16;;;31.42;40.82
2681;BME280;1350;42.134;24.708;2023-09-19T11:49:32;99430.16;;;31.43;40.43
2681;BME280;1350;42.134;24.708;2023-09-19T11:52:02;99430.97;;;31.43;40.85
2681;BME280;1350;42.134;24.708;2023-09-19T11:54:32;99431.34;;;31.60;40.14
2681;BME280;1350;42.134;24.708;2023-09-19T11:57:00;99424.91;;;31.35;40.64
2681;BME280;1350;42.134;24.708;2023-09-19T11:59:29;99424.25;;;31.46;40.62
2681;BME280;1350;42.134;24.708;2023-09-19T12:01:58;99425.50;;;31.43;41.35
2681;BME280;1350;42.134;24.708;2023-09-19T12:04:34;99422.94;;;31.48;42.88
2681;BME280;1350;42.134;24.708;2023-09-19T12:07:06;99416.09;;;31.13;41.55
2681;BME280;1350;42.134;24.708;2023-09-19T12:09:41;99416.53;;;31.03;41.11
2681;BME280;1350;42.134;24.708;2023-09-19T12:12:11;99416.88;;;31.27;41.78
2681;BME280;1350;42.134;24.708;2023-09-19T12:14:47;99404.13;;;31.01;41.10
2681;BME280;1350;42.134;24.708;2023-09-19T12:17:15;99403.28;;;30.94;40.86
2681;BME280;1350;42.134;24.708;2023-09-19T12:19:52;99405.84;;;30.89;41.85
2681;BME280;1350;42.134;24.708;2023-09-19T12:22:21;99403.72;;;30.91;41.76
2681;BME280;1350;42.134;24.708;2023-09-19T12:24:50;99411.69;;;31.12;41.43
2681;BME280;1350;42.134;24.708;2023-09-19T12:27:20;99402.19;;;31.01;41.71
2681;BME280;1350;42.134;24.708;2023-09-19T12:29:48;99412.38;;;30.62;42.18
2681;BME280;1350;42.134;24.708;2023-09-19T12:32:17;99397.00;;;30.48;41.58
2681;BME280;1350;42.134;24.708;2023-09-19T12:34:53;99401.63;;;30.28;42.11
2681;BME280;1350;42.134;24.708;2023-09-19T12:37:21;99394.50;;;30.27;41.80
2681;BME280;1350;42.134;24.708;2023-09-19T12:39:53;99396.19;;;30.47;42.50
2681;BME280;1350;42.134;24.708;2023-09-19T12:42:24;99397.00;;;30.61;41.19
2681;BME280;1350;42.134;24.708;2023-09-19T12:44:54;99389.41;;;30.76;41.02
2681;BME280;1350;42.134;24.708;2023-09-19T12:47:23;99388.38;;;30.44;41.01
2681;BME280;1350;42.134;24.708;2023-09-19T12:50:09;99386.06;;;30.67;41.15
2681;BME280;1350;42.134;24.708;2023-09-19T12:52:46;99384.72;;;31.02;41.06
2681;BME280;1350;42.134;24.708;2023-09-19T12:55:21;99379.69;;;30.99;40.47
2681;BME280;1350;42.134;24.708;2023-09-19T12:57:59;99372.53;;;30.72;40.81
2681;BME280;1350;42.134;24.708;2023-09-19T13:00:33;99375.09;;;30.67;41.39
2681;BME280;1350;42.134;24.708;2023-09-19T13:03:15;99378.88;;;30.79;41.27
2681;BME280;1350;42.134;24.708;2023-09-19T13:05:52;99373.81;;;30.70;41.05
2681;BME280;1350;42.134;24.708;2023-09-19T13:08:24;99373.00;;;30.63;41.90
2681;BME280;1350;42.134;24.708;2023-09-19T13:11:05;99374.03;;;30.55;41.04
2681;BME280;1350;42.134;24.708;2023-09-19T13:13:38;99360.81;;;30.39;42.11
2681;BME280;1350;42.134;24.708;2023-09-19T13:16:07;99367.13;;;30.40;41.74
2681;BME280;1350;42.134;24.708;2023-09-19T13:18:47;99358.50;;;30.43;41.17
2681;BME280;1350;42.134;24.708;2023-09-19T13:21:17;99366.03;;;30.67;41.78
2681;BME280;1350;42.134;24.708;2023-09-19T13:23:54;99359.72;;;30.60;40.98
2681;BME280;1350;42.134;24.708;2023-09-19T13:26:24;99366.00;;;30.86;40.41
2681;BME280;1350;42.134;24.708;2023-09-19T13:28:51;99357.31;;;31.09;40.47
2681;BME280;1350;42.134;24.708;2023-09-19T13:31:18;99356.69;;;31.07;40.17